IE-0037 weather

Gay Tracy Airstrip
County Offaly, Ireland

Public forecast

Using degrees Celsius for public forecast. Weather courtesy of forecast.io.

METAR (pilot weather report)

Closest report is Shannon Airport, 41.3 nm (76.4 km) WSW. Retrieved 2019/06/20 08:30 UTC (15 minutes ago):

EINN 200830Z 27006KT 9999 VCSH FEW012 FEW018CB 12/08 Q1012 NOSIG

TAF (pilot weather forecast)

Closest forecast is Shannon Airport, 41.3 nm (76.4 km) WSW. Retrieved 2019/06/20 06:11 UTC (3 hours ago):

TAF EINN 200500Z 2006/2106 26008KT 9999 FEW015 SCT020 BECMG 2006/2008 29010KT TEMPO 2006/2012 -SHRA SCT018CB PROB30 TEMPO 2006/2008 SHRA PROB30 TEMPO 2012/2018 FEW018CB TEMPO 2023/2106 VRB03KT BECMG 2102/2104 22005KT